Latest Weather Observations for Casterton

IDV60801

Issued at 5:32 pm EDT Monday 27 March 2017 (issued every 30 minutes, with the page automatically refreshed every 10 minutes)

About weather observations | Map of weather stations | Latest weather observations for VIC | Other Formats
Station Details ID: 090182 Name: CASTERTON Lat: -37.58 Lon: 141.33 Height: 130.6 m
Data from the previous 72 hours. | See also: Recent months at Casterton
Date/Time
EDT
Temp
°C
App
Temp
°C
Dew
Point
°C
Rel
Hum
%
Delta-T
°C
Wind Press
QNH
hPa
Press
MSL
hPa
Rain since
9am
mm
Dir  Spd
km/h
Gust
km/h
Spd
kts
Gust
kts
27/05:30pm 19.7 15.1 9.6 52 5.4 W 24 35 13 19 1011.3 1011.1 0.6
27/05:00pm 20.2 14.2 8.5 47 6.2 W 30 44 16 24 1011.1 1010.9 0.6
27/04:30pm 21.0 14.3 8.3 44 6.7 W 33 52 18 28 1010.9 1010.6 0.6
27/04:00pm 21.4 15.0 8.7 44 6.8 WNW 32 50 17 27 1010.8 1010.5 0.6
27/03:30pm 21.1 14.6 8.0 43 6.9 W 32 50 17 27 1010.9 1010.6 0.6
27/03:03pm 20.6 15.7 11.2 55 5.2 WNW 28 48 15 26 1010.8 1010.5 0.6
27/03:00pm 20.2 14.9 11.4 57 4.9 WNW 30 44 16 24 1010.8 1010.5 0.6
27/02:32pm 20.0 14.9 11.8 59 4.6 WNW 30 48 16 26 1011.1 1010.9 0.6
27/02:30pm 20.3 15.8 12.5 61 4.4 WNW 28 44 15 24 1011.2 1011.0 0.6
27/02:05pm 18.5 13.8 12.0 66 3.6 WNW 28 48 15 26 1011.1 1010.9 0.6
27/02:00pm 18.1 13.3 11.7 66 3.5 WNW 28 41 15 22 1011.0 1010.7 0.6
27/01:30pm 16.8 12.8 11.9 73 2.7 WNW 24 35 13 19 1011.2 1011.0 0.6
27/01:00pm 16.6 14.0 13.1 80 2.0 WNW 19 28 10 15 1011.4 1011.2 0.6
27/12:30pm 14.9 12.6 12.9 88 1.1 WNW 17 26 9 14 1011.4 1011.2 0.6
27/12:00pm 15.0 11.3 11.6 80 1.8 W 22 33 12 18 1011.6 1011.4 0.0
27/11:34am 16.6 11.0 10.0 65 3.5 W 30 48 16 26 1010.6 1010.3 0.0
27/11:30am 16.9 10.8 9.6 62 3.8 W 32 48 17 26 1010.9 1010.6 0.0
27/11:00am 18.2 12.1 12.9 71 3.0 W 37 57 20 31 1010.1 1009.8 0.0
27/10:42am 19.5 12.9 12.5 64 3.9 W 39 57 21 31 1009.1 1008.8 0.0
27/10:30am 19.1 13.0 13.1 68 3.4 WSW 37 54 20 29 1009.1 1008.8 0.0
27/10:19am 19.5 14.5 14.1 71 3.1 W 33 54 18 29 1008.5 1008.2 0.0
27/10:00am 19.6 16.2 15.7 78 2.3 W 28 43 15 23 1007.6 1007.3 0.0
27/09:46am 19.6 15.8 15.7 78 2.3 WSW 30 48 16 26 1007.0 1006.7 0.0
27/09:30am 20.0 16.5 16.4 80 2.2 W 30 44 16 24 1006.7 1006.4 0.0
27/09:00am 20.1 18.1 17.5 85 1.6 W 24 39 13 21 1006.3 1006.0 0.4
27/08:30am 22.4 18.9 16.4 69 3.7 W 30 46 16 25 1004.9 1004.6 0.0
27/08:03am 26.6 22.5 13.7 45 7.7 NW 28 46 15 25 1003.5 1003.2 0.0
27/08:00am 26.7 22.6 13.8 45 7.7 NNW 28 41 15 22 1003.5 1003.2 0.0
27/07:49am 26.9 22.7 13.6 44 7.9 NNW 28 46 15 25 1003.0 1002.7 0.0
27/07:30am 26.9 23.5 13.6 44 7.9 NNW 24 35 13 19 1002.9 1002.6 0.0
27/07:00am 26.3 21.7 13.4 45 7.7 N 30 43 16 23 1001.9 1001.6 0.0
27/06:40am 26.2 21.9 13.3 45 7.6 N 28 52 15 28 1001.6 1001.3 0.0
27/06:30am 26.2 21.9 13.3 45 7.6 N 28 43 15 23 1001.3 1001.0 0.0
27/06:00am 25.8 20.6 13.3 46 7.4 NNE 33 46 18 25 1001.0 1000.7 0.0
27/05:30am 25.9 21.7 13.4 46 7.4 NNE 28 46 15 25 1001.3 1001.0 0.0
27/05:00am 26.1 21.4 13.2 44 7.6 NNE 30 46 16 25 1001.8 1001.5 0.0
27/04:34am 25.8 21.5 13.3 46 7.4 NNE 28 46 15 25 1002.2 1001.9 0.0
27/04:30am 26.0 21.4 13.5 46 7.4 NNE 30 43 16 23 1002.2 1001.9 0.0
27/04:11am 26.2 21.9 13.3 45 7.6 NNE 28 46 15 25 1002.4 1002.1 0.0
27/04:00am 26.3 21.7 13.4 45 7.7 NNE 30 46 16 25 1002.7 1002.4 0.0
27/03:41am 26.4 21.8 13.5 45 7.6 NNE 30 50 16 27 1002.9 1002.6 0.0
27/03:30am 26.3 21.7 13.4 45 7.6 NNE 30 44 16 24 1003.3 1003.0 0.0
27/03:00am 26.0 21.4 13.5 46 7.4 NNE 30 48 16 26 1004.0 1003.6 0.0
27/02:57am 25.9 21.3 13.4 46 7.4 NNE 30 48 16 26 1004.0 1003.6 0.0
27/02:30am 25.3 21.5 13.5 48 7.0 NNE 26 35 14 19 1004.4 1004.0 0.0
27/02:00am 25.1 22.4 13.6 49 6.8 NNE 20 33 11 18 1005.4 1005.1 0.0
27/01:30am 24.8 22.4 13.7 50 6.5 NNE 19 30 10 16 1005.9 1005.6 0.0
27/01:00am 24.9 22.3 13.8 50 6.6 NNE 20 32 11 17 1006.3 1006.0 0.0
27/12:30am 25.0 22.3 13.5 48 6.8 NNE 20 33 11 18 1006.8 1006.5 0.0
27/12:00am 25.2 22.6 13.7 49 6.8 NNE 20 32 11 17 1007.5 1007.2 0.0
 
Date/Time
EDT
Temp
°C
App
Temp
°C
Dew
Point
°C
Rel
Hum
%
Delta-T
°C
Wind Press
QNH
hPa
Press
MSL
hPa
Rain since
9am
mm
Dir  Spd
km/h
Gust
km/h
Spd
kts
Gust
kts
26/11:30pm 25.2 22.8 13.7 49 6.8 NNE 19 28 10 15 1008.0 1007.7 0.0
26/11:00pm 25.1 23.5 13.9 49 6.6 N 15 26 8 14 1008.8 1008.5 0.0
26/10:30pm 25.3 23.3 13.8 49 6.8 NNE 17 26 9 14 1009.2 1008.9 0.0
26/10:00pm 25.3 23.3 13.8 49 6.8 NNE 17 24 9 13 1009.2 1008.9 0.0
26/09:30pm 25.1 23.1 13.9 49 6.6 NNE 17 24 9 13 1009.3 1009.0 0.0
26/09:00pm 24.8 23.5 13.7 50 6.6 NNE 13 19 7 10 1009.4 1009.1 0.0
26/08:30pm 25.0 23.6 13.5 48 6.8 NNE 13 19 7 10 1009.3 1009.0 0.0
26/08:00pm 25.2 24.4 14.0 49 6.7 NNE 11 15 6 8 1009.2 1008.9 0.0
26/07:30pm 25.7 24.5 13.9 48 7.0 NNE 13 17 7 9 1009.3 1009.0 0.0
26/07:00pm 26.2 25.0 14.0 47 7.3 NNE 13 19 7 10 1009.5 1009.2 0.0
26/06:30pm 26.5 25.2 13.6 45 7.7 N 13 20 7 11 1009.6 1009.3 0.0
26/06:00pm 27.0 25.8 14.1 45 7.7 N 13 19 7 10 1009.7 1009.4 0.0
26/05:30pm 26.9 25.5 13.3 43 8.0 N 13 20 7 11 1009.9 1009.6 0.0
26/05:00pm 27.0 25.2 13.4 43 8.1 N 15 20 8 11 1010.3 1010.0 0.0
26/04:30pm 27.2 25.0 13.2 42 8.3 N 17 28 9 15 1010.6 1010.3 0.0
26/04:00pm 27.3 25.7 12.9 41 8.5 N 13 20 7 11 1011.0 1010.7 0.0
26/03:30pm 27.7 26.9 14.0 43 8.2 NNW 11 17 6 9 1011.4 1011.2 0.0
26/03:00pm 27.0 27.0 15.1 48 7.2 NNW 9 15 5 8 1011.8 1011.6 0.0
26/02:30pm 26.4 25.0 14.5 48 7.2 NNW 15 24 8 13 1012.5 1012.2 0.0
26/02:00pm 25.5 24.9 14.6 51 6.5 NNE 11 17 6 9 1012.7 1012.4 0.0
26/01:30pm 24.0 23.7 14.4 55 5.7 ENE 9 17 5 9 1012.9 1012.6 0.0
26/01:00pm 23.7 23.7 15.2 59 5.1 NE 9 15 5 8 1013.6 1013.3 0.0
26/12:30pm 21.6 21.5 15.0 66 3.9 ESE 9 13 5 7 1014.0 1013.7 0.0
26/12:00pm 20.9 20.0 14.8 68 3.6 ENE 13 19 7 10 1014.2 1013.9 0.0
26/11:30am 20.1 19.2 14.9 72 3.1 E 13 20 7 11 1014.0 1013.7 0.0
26/11:00am 19.7 18.4 14.9 74 2.8 E 15 20 8 11 1014.6 1014.3 0.0
26/10:30am 19.6 18.4 15.0 75 2.7 ESE 15 20 8 11 1014.2 1013.9 0.0
26/10:00am 18.6 17.2 14.5 77 2.4 ESE 15 20 8 11 1014.6 1014.3 0.0
26/09:30am 17.8 16.4 14.5 81 1.9 SE 15 19 8 10 1014.8 1014.5 0.0
26/09:00am 16.6 16.9 15.0 90 0.9 SSE 7 11 4 6 1014.7 1014.4 0.0
26/08:30am 16.1 16.0 15.0 93 0.6 SSW 9 11 5 6 1014.9 1014.6 0.0
26/08:00am 15.3 15.3 14.2 93 0.6 SSW 7 9 4 5 1014.5 1014.2 0.0
26/07:30am 15.9 16.1 14.3 90 0.9 SE 6 9 3 5 1014.0 1013.7 0.0
26/07:00am 16.1 16.7 14.3 89 1.0 SSE 4 7 2 4 1013.9 1013.6 0.0
26/06:30am 16.1 16.3 14.3 89 1.0 SSE 6 7 3 4 1013.6 1013.3 0.0
26/06:00am 16.3 16.5 14.3 88 1.1 SSE 6 7 3 4 1013.3 1013.0 0.0
26/05:30am 16.5 16.7 14.3 87 1.3 SSE 6 7 3 4 1013.4 1013.1 0.0
26/05:00am 16.8 17.5 14.4 86 1.4 SSE 4 7 2 4 1013.5 1013.2 0.0
26/04:30am 16.8 17.0 14.1 84 1.5 ESE 6 7 3 4 1013.4 1013.1 0.0
26/04:00am 16.9 16.5 14.2 84 1.5 ESE 9 13 5 7 1013.6 1013.3 0.0
26/03:30am 16.9 16.5 14.2 84 1.5 ESE 9 11 5 6 1013.8 1013.5 0.0
26/03:00am 16.9 16.5 14.2 84 1.5 ESE 9 11 5 6 1014.1 1013.8 0.0
26/02:30am 16.9 16.2 14.2 84 1.5 SE 11 15 6 8 1014.4 1014.1 0.0
26/02:00am 16.9 16.1 14.0 83 1.7 ESE 11 17 6 9 1014.6 1014.3 0.0
26/01:30am 16.9 16.5 14.0 83 1.7 SE 9 13 5 7 1014.5 1014.2 0.0
26/01:00am 17.0 16.6 14.1 83 1.7 SE 9 13 5 7 1014.7 1014.4 0.0
26/12:30am 17.0 16.2 14.1 83 1.7 S 11 15 6 8 1014.8 1014.5 0.0
26/12:00am 17.1 16.0 14.2 83 1.7 SSE 13 17 7 9 1015.0 1014.7 0.0
 
Date/Time
EDT
Temp
°C
App
Temp
°C
Dew
Point
°C
Rel
Hum
%
Delta-T
°C
Wind Press
QNH
hPa
Press
MSL
hPa
Rain since
9am
mm
Dir  Spd
km/h
Gust
km/h
Spd
kts
Gust
kts
25/11:30pm 17.2 16.9 14.3 83 1.7 SSE 9 13 5 7 1015.3 1015.0 0.0
25/11:00pm 17.1 16.4 14.2 83 1.7 S 11 17 6 9 1015.4 1015.1 0.0
25/10:30pm 17.2 16.1 14.3 83 1.7 SSW 13 17 7 9 1015.2 1014.9 0.0
25/10:00pm 17.3 15.9 14.6 84 1.6 S 15 19 8 10 1015.0 1014.7 0.0
25/09:30pm 17.7 16.9 15.0 84 1.6 S 13 19 7 10 1014.7 1014.4 0.0
25/09:00pm 17.8 17.3 14.9 83 1.7 S 11 15 6 8 1014.5 1014.2 0.0
25/08:30pm 17.8 17.3 14.9 83 1.7 S 11 17 6 9 1014.1 1013.8 0.0
25/08:00pm 17.7 16.8 14.8 83 1.7 SW 13 20 7 11 1013.9 1013.6 0.0
25/07:30pm 18.3 16.8 15.4 83 1.7 SSW 17 24 9 13 1013.3 1013.0 0.0
25/07:00pm 19.2 17.9 15.9 81 2.0 SSW 17 26 9 14 1013.1 1012.8 0.0
25/06:30pm 20.4 18.2 16.0 76 2.6 SSW 22 28 12 15 1012.7 1012.4 0.0
25/06:00pm 22.1 20.7 16.6 71 3.4 SW 19 28 10 15 1012.7 1012.4 0.0
25/05:30pm 23.1 21.8 17.3 70 3.6 SSW 20 30 11 16 1012.2 1011.9 0.0
25/05:00pm 24.2 22.6 17.4 65 4.2 SW 22 35 12 19 1011.7 1011.5 0.0
25/04:30pm 25.2 23.5 18.2 65 4.4 SW 24 33 13 18 1011.6 1011.4 0.0
25/04:00pm 26.7 25.9 18.0 59 5.5 SW 19 28 10 15 1011.2 1011.0 0.0
25/03:30pm 27.2 26.0 17.1 54 6.3 WSW 19 26 10 14 1011.2 1011.0 0.0
25/03:00pm 28.1 26.9 16.1 48 7.5 W 17 26 9 14 1011.2 1011.0 0.0
25/02:30pm 27.7 26.5 16.0 49 7.2 WSW 17 26 9 14 1011.5 1011.3 0.0
25/02:00pm 27.3 27.1 16.6 52 6.7 WSW 13 20 7 11 1011.6 1011.4 0.0
25/01:30pm 27.7 27.5 16.6 50 6.9 W 13 20 7 11 1011.8 1011.6 0.0
25/01:00pm 26.6 26.1 15.9 51 6.6 SW 13 20 7 11 1012.2 1011.9 0.0
25/12:30pm 26.9 25.5 15.6 50 6.9 WSW 17 28 9 15 1012.3 1012.0 0.0
25/12:00pm 26.1 25.1 15.5 52 6.5 W 15 24 8 13 1012.5 1012.2 0.0
25/11:30am 25.8 24.4 15.5 53 6.3 WNW 17 22 9 12 1012.5 1012.2 0.0
25/11:00am 25.9 24.9 15.6 53 6.3 NW 15 20 8 11 1012.5 1012.2 0.0
25/10:30am 25.0 24.3 15.3 55 5.9 NW 13 20 7 11 1012.5 1012.2 0.0
25/10:00am 24.2 22.6 15.1 56 5.5 NNW 17 24 9 13 1012.7 1012.4 0.0
25/09:30am 22.6 20.6 15.0 62 4.5 N 19 24 10 13 1012.4 1012.1 0.0
25/09:00am 21.6 21.4 14.7 65 4.1 NNW 9 13 5 7 1012.2 1011.9 0.0
25/08:30am 19.9 19.3 14.7 72 3.1 NW 11 15 6 8 1012.1 1011.8 0.0
25/08:00am 20.1 19.7 14.0 68 3.5 NNW 9 13 5 7 1011.4 1011.2 0.0
25/07:30am 20.8 20.0 14.0 65 4.0 N 11 17 6 9 1010.9 1010.6 0.0
25/07:00am 20.8 19.6 14.0 65 4.0 N 13 19 7 10 1010.7 1010.4 0.0
25/06:30am 20.7 19.9 13.9 65 4.0 N 11 15 6 8 1010.6 1010.3 0.0
25/06:00am 21.0 20.1 13.7 63 4.2 NNE 11 15 6 8 1010.6 1010.3 0.0
25/05:30am 21.4 20.1 13.8 62 4.4 NNE 13 19 7 10 1010.6 1010.3 0.0
25/05:00am 21.5 20.6 13.7 61 4.5 NNE 11 15 6 8 1010.7 1010.4 0.0
25/04:30am 22.1 20.8 13.7 59 4.9 NNE 13 17 7 9 1010.7 1010.4 0.0
25/04:00am 22.1 20.8 13.7 59 4.9 NNE 13 17 7 9 1010.5 1010.2 0.0
25/03:30am 22.6 20.9 13.7 57 5.2 NNE 15 24 8 13 1011.0 1010.7 0.0
25/03:00am 21.5 21.4 13.9 62 4.4 NNE 7 11 4 6 1011.0 1010.7 0.0
25/02:30am 21.4 20.3 14.3 64 4.2 NE 13 19 7 10 1011.0 1010.7 0.0
25/02:00am 19.8 19.9 15.4 76 2.6 ENE 9 15 5 8 1011.4 1011.2 0.0
25/01:30am 19.5 19.8 16.0 80 2.1 ENE 9 13 5 7 1012.1 1011.8 0.0
25/01:00am 19.1 20.1 16.3 84 1.7 ENE 6 9 3 5 1012.6 1012.3 0.0
25/12:30am 19.4 20.1 16.2 82 1.9 ENE 7 9 4 5 1012.5 1012.2 0.0
25/12:00am 19.7 20.4 16.2 80 2.1 E 7 11 4 6 1012.8 1012.5 0.0
 
Date/Time
EDT
Temp
°C
App
Temp
°C
Dew
Point
°C
Rel
Hum
%
Delta-T
°C
Wind Press
QNH
hPa
Press
MSL
hPa
Rain since
9am
mm
Dir  Spd
km/h
Gust
km/h
Spd
kts
Gust
kts
24/11:30pm 20.0 19.9 16.0 78 2.4 ENE 11 15 6 8 1013.2 1012.9 0.0
24/11:00pm 20.7 20.6 15.9 74 2.9 ENE 11 13 6 7 1013.9 1013.6 0.0
24/10:30pm 20.7 21.0 16.1 75 2.8 E 9 13 5 7 1014.4 1014.1 0.0
24/10:00pm 20.9 21.2 16.1 74 2.9 ENE 9 13 5 7 1014.1 1013.8 0.0
24/09:30pm 20.5 21.6 15.7 74 2.9 E 4 7 2 4 1014.3 1014.0 0.0
24/09:00pm 21.4 21.7 15.9 71 3.3 ESE 9 11 5 6 1014.3 1014.0 0.0
24/08:30pm 21.5 21.4 16.0 71 3.3 E 11 15 6 8 1013.7 1013.4 0.0
24/08:00pm 22.5 22.8 16.1 67 3.9 ESE 9 13 5 7 1013.9 1013.6 0.0
24/07:30pm 23.0 24.0 14.3 58 5.1 E 2 11 1 6 1014.1 1013.8 0.0
24/07:00pm 24.8 26.2 14.3 52 6.3 CALM 0 0 0 0 1014.2 1013.9 0.0
24/06:30pm 26.0 26.0 13.5 46 7.4 E 6 9 3 5 1014.3 1014.0 0.0
24/06:00pm 26.1 25.5 13.6 46 7.4 NE 9 13 5 7 1014.5 1014.2 0.0

Other Formats:

Comma delimited format used in spreadsheet applications
http://www.bom.gov.au/fwo/IDV60801/IDV60801.95825.axf

JavaScript Object Notation format (JSON) in row-major order
http://www.bom.gov.au/fwo/IDV60801/IDV60801.95825.json